Time,TemperatureF,DewpointF,PressureIn,WindDirection,WindDirectionDegrees,WindSpeedMPH,WindSpeedGustMPH,Humidity,HourlyPrecipIn,Conditions,Clouds,dailyrainin,SolarRadiationWatts/m^2,SoftwareType,DateUTC
2013-10-15 00:04:00,62.0,58.0,30.33,ENE,65,6.0,14.0,88,0.00,,,0.04,0.000000,,2013-10-15 04:04:00,
2013-10-15 00:10:00,62.0,59.0,30.32,NE,46,4.0,9.0,89,0.00,,,0.04,0.000000,,2013-10-15 04:10:00,
2013-10-15 00:44:00,62.0,59.0,30.32,NE,46,4.0,9.0,89,0.00,,,0.04,0.000000,,2013-10-15 04:44:00,
2013-10-15 00:54:00,62.0,59.0,30.32,NE,46,4.0,9.0,89,0.00,,,0.04,0.000000,,2013-10-15 04:54:00,
2013-10-15 01:03:00,62.0,59.0,30.32,NE,46,4.0,9.0,89,0.00,,,0.04,0.000000,,2013-10-15 05:03:00,
2013-10-15 01:10:00,60.0,56.0,30.32,NE,54,5.0,13.0,87,0.00,,,0.04,0.000000,,2013-10-15 05:10:00,
2013-10-15 01:42:00,60.0,56.0,30.32,NE,54,5.0,13.0,87,0.00,,,0.04,0.000000,,2013-10-15 05:42:00,
2013-10-15 01:53:00,60.0,56.0,30.32,NE,54,5.0,13.0,87,0.00,,,0.04,0.000000,,2013-10-15 05:53:00,
2013-10-15 02:02:00,60.0,56.0,30.32,NE,54,5.0,13.0,87,0.00,,,0.04,0.000000,,2013-10-15 06:02:00,
2013-10-15 02:10:00,60.0,56.0,30.30,NNE,24,3.0,8.0,88,0.00,,,0.04,0.000000,,2013-10-15 06:10:00,
2013-10-15 02:43:00,60.0,56.0,30.30,NNE,24,3.0,8.0,88,0.00,,,0.04,0.000000,,2013-10-15 06:43:00,
2013-10-15 02:52:00,60.0,56.0,30.30,NNE,24,3.0,8.0,88,0.00,,,0.04,0.000000,,2013-10-15 06:52:00,
2013-10-15 03:02:00,60.0,56.0,30.30,NNE,24,3.0,8.0,88,0.00,,,0.04,0.000000,,2013-10-15 07:02:00,
2013-10-15 03:10:00,61.0,58.0,30.30,NNE,20,4.0,10.0,89,0.00,,,0.04,0.000000,,2013-10-15 07:10:00,
2013-10-15 03:42:00,61.0,58.0,30.30,NNE,20,4.0,10.0,89,0.00,,,0.04,0.000000,,2013-10-15 07:42:00,
2013-10-15 03:53:00,61.0,58.0,30.30,NNE,20,4.0,10.0,89,0.00,,,0.04,0.000000,,2013-10-15 07:53:00,
2013-10-15 04:02:00,61.0,58.0,30.30,NNE,20,4.0,10.0,89,0.00,,,0.04,0.000000,,2013-10-15 08:02:00,
2013-10-15 04:10:00,61.0,58.0,30.29,NNE,22,2.0,10.0,89,0.00,,,0.04,0.000000,,2013-10-15 08:10:00,
2013-10-15 04:42:00,61.0,58.0,30.29,NNE,22,2.0,10.0,89,0.00,,,0.04,0.000000,,2013-10-15 08:42:00,
2013-10-15 04:52:00,61.0,58.0,30.29,NNE,22,2.0,10.0,89,0.00,,,0.04,0.000000,,2013-10-15 08:52:00,
2013-10-15 05:02:00,61.0,58.0,30.29,NNE,22,2.0,10.0,89,0.00,,,0.04,0.000000,,2013-10-15 09:02:00,
2013-10-15 05:10:00,60.0,58.0,30.28,NE,41,2.0,5.0,94,0.00,,,0.00,0.000000,,2013-10-15 09:10:00,
2013-10-15 05:43:00,60.0,58.0,30.28,NE,41,2.0,5.0,94,0.00,,,0.00,0.000000,,2013-10-15 09:43:00,
2013-10-15 05:53:00,60.0,58.0,30.28,NE,41,2.0,5.0,94,0.00,,,0.00,0.000000,,2013-10-15 09:53:00,
2013-10-15 06:03:00,60.0,58.0,30.28,NE,41,2.0,5.0,94,0.00,,,0.00,0.000000,,2013-10-15 10:03:00,
2013-10-15 06:10:00,59.0,57.0,30.28,NNE,33,3.0,7.0,92,0.00,,,0.00,0.000000,,2013-10-15 10:10:00,
2013-10-15 06:43:00,59.0,57.0,30.28,NNE,33,3.0,7.0,92,0.00,,,0.00,0.000000,,2013-10-15 10:43:00,
2013-10-15 06:53:00,59.0,57.0,30.28,NNE,33,3.0,7.0,92,0.00,,,0.00,0.000000,,2013-10-15 10:53:00,
2013-10-15 07:02:00,59.0,57.0,30.28,NNE,33,3.0,7.0,92,0.00,,,0.00,0.000000,,2013-10-15 11:02:00,
2013-10-15 07:10:00,58.0,56.0,30.28,NE,50,3.0,11.0,93,0.00,,,0.00,0.000000,,2013-10-15 11:10:00,
2013-10-15 07:42:00,58.0,56.0,30.28,NE,50,3.0,11.0,93,0.00,,,0.00,0.000000,,2013-10-15 11:42:00,
2013-10-15 07:53:00,58.0,56.0,30.28,NE,50,3.0,11.0,93,0.00,,,0.00,0.000000,,2013-10-15 11:53:00,
2013-10-15 08:01:00,58.0,56.0,30.28,NE,50,3.0,11.0,93,0.00,,,0.00,0.000000,,2013-10-15 12:01:00,
2013-10-15 08:10:00,58.0,57.0,30.28,ENE,60,2.0,9.0,98,0.00,,,0.00,6.000000,,2013-10-15 12:10:00,
2013-10-15 08:42:00,58.0,57.0,30.28,ENE,60,2.0,9.0,98,0.00,,,0.00,6.000000,,2013-10-15 12:42:00,
2013-10-15 08:52:00,58.0,57.0,30.28,ENE,60,2.0,9.0,98,0.00,,,0.00,6.000000,,2013-10-15 12:52:00,
2013-10-15 09:02:00,58.0,57.0,30.28,ENE,60,2.0,9.0,98,0.00,,,0.00,6.000000,,2013-10-15 13:02:00,
2013-10-15 09:10:00,60.0,54.0,30.30,NE,38,6.0,15.0,82,0.00,,,0.00,56.000000,,2013-10-15 13:10:00,
2013-10-15 09:42:00,60.0,54.0,30.30,NE,38,6.0,15.0,82,0.00,,,0.00,56.000000,,2013-10-15 13:42:00,
2013-10-15 09:52:00,60.0,54.0,30.30,NE,38,6.0,15.0,82,0.00,,,0.00,56.000000,,2013-10-15 13:52:00,
2013-10-15 10:02:00,60.0,54.0,30.30,NE,38,6.0,15.0,82,0.00,,,0.00,56.000000,,2013-10-15 14:02:00,
2013-10-15 10:10:00,64.0,55.0,30.30,NE,51,7.0,16.0,72,0.00,,,0.00,120.000000,,2013-10-15 14:10:00,
2013-10-15 10:42:00,64.0,55.0,30.30,NE,51,7.0,16.0,72,0.00,,,0.00,120.000000,,2013-10-15 14:42:00,
2013-10-15 10:52:00,64.0,55.0,30.30,NE,51,7.0,16.0,72,0.00,,,0.00,120.000000,,2013-10-15 14:52:00,
2013-10-15 11:02:00,64.0,55.0,30.30,NE,51,7.0,16.0,72,0.00,,,0.00,120.000000,,2013-10-15 15:02:00,
2013-10-15 11:10:00,72.0,56.0,30.27,NE,47,6.0,18.0,58,0.00,,,0.00,513.000000,,2013-10-15 15:10:00,
2013-10-15 11:44:00,72.0,56.0,30.27,NE,47,6.0,18.0,58,0.00,,,0.00,513.000000,,2013-10-15 15:44:00,
2013-10-15 11:53:00,72.0,56.0,30.27,NE,47,6.0,18.0,58,0.00,,,0.00,513.000000,,2013-10-15 15:53:00,
2013-10-15 12:03:00,72.0,56.0,30.27,NE,47,6.0,18.0,58,0.00,,,0.00,513.000000,,2013-10-15 16:03:00,
2013-10-15 12:10:00,75.0,56.0,30.27,ENE,61,5.0,16.0,52,0.00,,,0.00,800.000000,,2013-10-15 16:10:00,
2013-10-15 12:53:00,75.0,56.0,30.27,ENE,61,5.0,16.0,52,0.00,,,0.00,800.000000,,2013-10-15 16:53:00,
2013-10-15 13:03:00,75.0,56.0,30.27,ENE,61,5.0,16.0,52,0.00,,,0.00,800.000000,,2013-10-15 17:03:00,
2013-10-15 13:10:00,77.0,56.0,30.25,ESE,117,5.0,13.0,49,0.00,,,0.00,896.000000,,2013-10-15 17:10:00,
2013-10-15 13:43:00,77.0,56.0,30.25,ESE,117,5.0,13.0,49,0.00,,,0.00,896.000000,,2013-10-15 17:43:00,
2013-10-15 13:53:00,77.0,56.0,30.25,ESE,117,5.0,13.0,49,0.00,,,0.00,896.000000,,2013-10-15 17:53:00,
2013-10-15 14:02:00,77.0,56.0,30.25,ESE,117,5.0,13.0,49,0.00,,,0.00,896.000000,,2013-10-15 18:02:00,
2013-10-15 14:10:00,77.0,54.0,30.22,NE,34,6.0,13.0,45,0.00,,,0.00,914.000000,,2013-10-15 18:10:00,
2013-10-15 14:42:00,77.0,54.0,30.22,NE,34,6.0,13.0,45,0.00,,,0.00,914.000000,,2013-10-15 18:42:00,
2013-10-15 14:52:00,77.0,54.0,30.22,NE,34,6.0,13.0,45,0.00,,,0.00,914.000000,,2013-10-15 18:52:00,
2013-10-15 15:01:00,77.0,54.0,30.22,NE,34,6.0,13.0,45,0.00,,,0.00,914.000000,,2013-10-15 19:01:00,
2013-10-15 15:10:00,77.0,53.0,30.19,SE,135,5.0,12.0,43,0.00,,,0.00,831.000000,,2013-10-15 19:10:00,
2013-10-15 15:42:00,77.0,53.0,30.19,SE,135,5.0,12.0,43,0.00,,,0.00,831.000000,,2013-10-15 19:42:00,
2013-10-15 15:52:00,77.0,53.0,30.19,SE,135,5.0,12.0,43,0.00,,,0.00,831.000000,,2013-10-15 19:52:00,
2013-10-15 16:03:00,77.0,53.0,30.19,SE,135,5.0,12.0,43,0.00,,,0.00,831.000000,,2013-10-15 20:03:00,
2013-10-15 16:10:00,78.0,53.0,30.18,South,189,6.0,12.0,42,0.00,,,0.00,621.000000,,2013-10-15 20:10:00,
2013-10-15 16:42:00,78.0,53.0,30.18,South,189,6.0,12.0,42,0.00,,,0.00,621.000000,,2013-10-15 20:42:00,
2013-10-15 16:52:00,78.0,53.0,30.18,South,189,6.0,12.0,42,0.00,,,0.00,621.000000,,2013-10-15 20:52:00,
2013-10-15 17:02:00,78.0,53.0,30.18,South,189,6.0,12.0,42,0.00,,,0.00,621.000000,,2013-10-15 21:02:00,
2013-10-15 17:10:00,77.0,56.0,30.17,SSW,199,3.0,10.0,48,0.00,,,0.00,466.000000,,2013-10-15 21:10:00,
2013-10-15 17:44:00,77.0,56.0,30.17,SSW,199,3.0,10.0,48,0.00,,,0.00,466.000000,,2013-10-15 21:44:00,
2013-10-15 17:54:00,77.0,56.0,30.17,SSW,199,3.0,10.0,48,0.00,,,0.00,466.000000,,2013-10-15 21:54:00,
2013-10-15 18:04:00,77.0,56.0,30.17,SSW,199,3.0,10.0,48,0.00,,,0.00,466.000000,,2013-10-15 22:04:00,
2013-10-15 18:10:00,66.0,57.0,30.17,NNW,341,2.0,6.0,74,0.00,,,0.00,135.000000,,2013-10-15 22:10:00,
2013-10-15 18:43:00,66.0,57.0,30.17,NNW,341,2.0,6.0,74,0.00,,,0.00,135.000000,,2013-10-15 22:43:00,
2013-10-15 18:54:00,66.0,57.0,30.17,NNW,341,2.0,6.0,74,0.00,,,0.00,135.000000,,2013-10-15 22:54:00,
2013-10-15 19:03:00,66.0,57.0,30.17,NNW,341,2.0,6.0,74,0.00,,,0.00,135.000000,,2013-10-15 23:03:00,
2013-10-15 20:10:00,58.0,56.0,30.19,North,353,1.0,4.0,94,0.00,,,0.00,0.000000,,2013-10-16 00:10:00,
2013-10-15 20:42:00,58.0,56.0,30.19,North,353,1.0,4.0,94,0.00,,,0.00,0.000000,,2013-10-16 00:42:00,
2013-10-15 20:52:00,58.0,56.0,30.19,North,353,1.0,4.0,94,0.00,,,0.00,0.000000,,2013-10-16 00:52:00,
2013-10-15 21:02:00,58.0,56.0,30.19,North,353,1.0,4.0,94,0.00,,,0.00,0.000000,,2013-10-16 01:02:00,
2013-10-15 21:10:00,58.0,57.0,30.20,NE,50,2.0,4.0,97,0.00,,,0.00,0.000000,,2013-10-16 01:10:00,
2013-10-15 21:42:00,58.0,57.0,30.20,NE,50,2.0,4.0,97,0.00,,,0.00,0.000000,,2013-10-16 01:42:00,
2013-10-15 21:53:00,58.0,57.0,30.20,NE,50,2.0,4.0,97,0.00,,,0.00,0.000000,,2013-10-16 01:53:00,
2013-10-15 22:02:00,58.0,57.0,30.20,NE,50,2.0,4.0,97,0.00,,,0.00,0.000000,,2013-10-16 02:02:00,
2013-10-15 22:10:00,57.0,57.0,30.19,NE,50,2.0,5.0,99,0.00,,,0.00,0.000000,,2013-10-16 02:10:00,
2013-10-15 22:43:00,57.0,57.0,30.19,NE,50,2.0,5.0,99,0.00,,,0.00,0.000000,,2013-10-16 02:43:00,
2013-10-15 22:52:00,57.0,57.0,30.19,NE,50,2.0,5.0,99,0.00,,,0.00,0.000000,,2013-10-16 02:52:00,
2013-10-15 23:02:00,57.0,57.0,30.19,NE,50,2.0,5.0,99,0.00,,,0.00,0.000000,,2013-10-16 03:02:00,
2013-10-15 23:10:00,55.0,55.0,30.20,NNE,32,1.0,3.0,99,0.00,,,0.00,0.000000,,2013-10-16 03:10:00,
2013-10-15 23:45:00,55.0,55.0,30.20,NNE,32,1.0,3.0,99,0.00,,,0.00,0.000000,,2013-10-16 03:45:00,
2013-10-15 23:55:00,55.0,55.0,30.20,NNE,32,1.0,3.0,99,0.00,,,0.00,0.000000,,2013-10-16 03:55:00,